sensor_id;sensor_type;location;lat;lon;timestamp;pressure;altitude;pressure_sealevel;temperature;humidity
52949;BME280;38812;50.942;3.644;2023-07-24T00:02:13;100580.97;;;17.31;100.00
52949;BME280;38812;50.942;3.644;2023-07-24T00:04:39;100578.41;;;17.30;100.00
52949;BME280;38812;50.942;3.644;2023-07-24T00:07:05;100580.34;;;17.26;100.00
52949;BME280;38812;50.942;3.644;2023-07-24T00:09:30;100584.88;;;17.24;100.00
52949;BME280;38812;50.942;3.644;2023-07-24T00:11:56;100575.50;;;17.17;100.00
52949;BME280;38812;50.942;3.644;2023-07-24T00:14:21;100581.44;;;17.22;100.00
52949;BME280;38812;50.942;3.644;2023-07-24T00:16:46;100553.84;;;17.09;100.00
52949;BME280;38812;50.942;3.644;2023-07-24T00:19:12;100582.53;;;17.18;100.00
52949;BME280;38812;50.942;3.644;2023-07-24T00:21:37;100586.06;;;17.19;100.00
52949;BME280;38812;50.942;3.644;2023-07-24T00:24:03;100562.75;;;17.08;100.00
52949;BME280;38812;50.942;3.644;2023-07-24T00:26:28;100581.59;;;17.19;100.00
52949;BME280;38812;50.942;3.644;2023-07-24T00:28:53;100587.78;;;17.20;100.00
52949;BME280;38812;50.942;3.644;2023-07-24T00:31:19;100585.19;;;17.18;100.00
52949;BME280;38812;50.942;3.644;2023-07-24T00:33:44;100586.13;;;17.17;100.00
52949;BME280;38812;50.942;3.644;2023-07-24T00:36:10;100578.16;;;17.17;100.00
52949;BME280;38812;50.942;3.644;2023-07-24T00:38:35;100568.50;;;17.16;100.00
52949;BME280;38812;50.942;3.644;2023-07-24T00:41:00;100570.53;;;17.11;100.00
52949;BME280;38812;50.942;3.644;2023-07-24T00:43:26;100573.16;;;17.11;100.00
52949;BME280;38812;50.942;3.644;2023-07-24T00:45:51;100581.25;;;17.09;100.00
52949;BME280;38812;50.942;3.644;2023-07-24T00:48:17;100580.38;;;17.09;100.00
52949;BME280;38812;50.942;3.644;2023-07-24T00:50:43;100570.88;;;17.05;100.00
52949;BME280;38812;50.942;3.644;2023-07-24T00:53:10;100569.44;;;16.98;100.00
52949;BME280;38812;50.942;3.644;2023-07-24T00:55:36;100595.97;;;17.15;100.00
52949;BME280;38812;50.942;3.644;2023-07-24T00:58:03;100585.78;;;17.07;100.00
52949;BME280;38812;50.942;3.644;2023-07-24T01:00:28;100580.38;;;17.09;100.00
52949;BME280;38812;50.942;3.644;2023-07-24T01:02:55;100564.28;;;16.95;100.00
52949;BME280;38812;50.942;3.644;2023-07-24T01:05:22;100561.97;;;17.06;100.00
52949;BME280;38812;50.942;3.644;2023-07-24T01:07:50;100574.88;;;17.12;100.00
52949;BME280;38812;50.942;3.644;2023-07-24T01:10:15;100551.97;;;16.94;100.00
52949;BME280;38812;50.942;3.644;2023-07-24T01:13:02;100572.09;;;16.98;100.00
52949;BME280;38812;50.942;3.644;2023-07-24T01:15:36;100572.19;;;16.96;100.00
52949;BME280;38812;50.942;3.644;2023-07-24T01:18:08;100560.34;;;16.86;100.00
52949;BME280;38812;50.942;3.644;2023-07-24T01:20:37;100542.31;;;16.75;100.00
52949;BME280;38812;50.942;3.644;2023-07-24T01:26:00;100552.28;;;16.70;100.00
52949;BME280;38812;50.942;3.644;2023-07-24T01:28:29;100557.28;;;16.76;100.00
52949;BME280;38812;50.942;3.644;2023-07-24T01:30:55;100551.50;;;16.68;100.00
52949;BME280;38812;50.942;3.644;2023-07-24T01:33:21;100533.13;;;16.65;100.00
52949;BME280;38812;50.942;3.644;2023-07-24T01:35:55;100525.38;;;16.61;100.00
52949;BME280;38812;50.942;3.644;2023-07-24T01:38:24;100514.03;;;16.57;100.00
52949;BME280;38812;50.942;3.644;2023-07-24T01:40:54;100517.63;;;16.56;100.00
52949;BME280;38812;50.942;3.644;2023-07-24T01:43:20;100529.63;;;16.65;100.00
52949;BME280;38812;50.942;3.644;2023-07-24T01:45:45;100535.97;;;16.61;100.00
52949;BME280;38812;50.942;3.644;2023-07-24T01:48:11;100526.38;;;16.58;100.00
52949;BME280;38812;50.942;3.644;2023-07-24T01:50:36;100528.25;;;16.56;100.00
52949;BME280;38812;50.942;3.644;2023-07-24T01:53:02;100522.94;;;16.56;100.00
52949;BME280;38812;50.942;3.644;2023-07-24T01:55:27;100489.25;;;16.41;100.00
52949;BME280;38812;50.942;3.644;2023-07-24T01:57:53;100498.44;;;16.51;100.00
52949;BME280;38812;50.942;3.644;2023-07-24T02:00:18;100512.31;;;16.56;100.00
52949;BME280;38812;50.942;3.644;2023-07-24T02:02:44;100496.56;;;16.53;100.00
52949;BME280;38812;50.942;3.644;2023-07-24T02:05:09;100492.28;;;16.51;100.00
52949;BME280;38812;50.942;3.644;2023-07-24T02:07:34;100487.69;;;16.54;100.00
52949;BME280;38812;50.942;3.644;2023-07-24T02:10:00;100499.84;;;16.58;100.00
52949;BME280;38812;50.942;3.644;2023-07-24T02:12:25;100496.13;;;16.62;100.00
52949;BME280;38812;50.942;3.644;2023-07-24T02:14:51;100492.19;;;16.52;100.00
52949;BME280;38812;50.942;3.644;2023-07-24T02:17:19;100501.16;;;16.50;100.00
52949;BME280;38812;50.942;3.644;2023-07-24T02:19:45;100504.16;;;16.43;100.00
52949;BME280;38812;50.942;3.644;2023-07-24T02:22:11;100511.06;;;16.46;100.00
52949;BME280;38812;50.942;3.644;2023-07-24T02:24:36;100523.78;;;16.39;100.00
52949;BME280;38812;50.942;3.644;2023-07-24T02:27:02;100533.63;;;16.37;100.00
52949;BME280;38812;50.942;3.644;2023-07-24T02:29:27;100537.63;;;16.27;100.00
52949;BME280;38812;50.942;3.644;2023-07-24T02:31:54;100529.94;;;16.23;100.00
52949;BME280;38812;50.942;3.644;2023-07-24T02:34:19;100514.78;;;16.07;100.00
52949;BME280;38812;50.942;3.644;2023-07-24T02:36:49;100518.69;;;16.00;100.00
52949;BME280;38812;50.942;3.644;2023-07-24T02:39:15;100514.44;;;15.96;100.00
52949;BME280;38812;50.942;3.644;2023-07-24T02:41:40;100520.97;;;15.89;100.00
52949;BME280;38812;50.942;3.644;2023-07-24T02:44:05;100510.03;;;15.78;100.00
52949;BME280;38812;50.942;3.644;2023-07-24T02:46:31;100512.97;;;15.72;100.00
52949;BME280;38812;50.942;3.644;2023-07-24T02:48:56;100523.78;;;15.67;100.00
52949;BME280;38812;50.942;3.644;2023-07-24T02:51:22;100513.13;;;15.69;100.00
52949;BME280;38812;50.942;3.644;2023-07-24T02:53:47;100486.38;;;15.56;100.00
52949;BME280;38812;50.942;3.644;2023-07-24T02:56:12;100503.25;;;15.72;100.00
52949;BME280;38812;50.942;3.644;2023-07-24T02:58:38;100506.09;;;15.68;100.00
52949;BME280;38812;50.942;3.644;2023-07-24T03:01:07;100499.22;;;15.64;100.00
52949;BME280;38812;50.942;3.644;2023-07-24T03:03:33;100503.44;;;15.68;100.00
52949;BME280;38812;50.942;3.644;2023-07-24T03:05:59;100512.25;;;15.68;100.00
52949;BME280;38812;50.942;3.644;2023-07-24T03:08:24;100509.03;;;15.62;100.00
52949;BME280;38812;50.942;3.644;2023-07-24T03:10:50;100510.75;;;15.63;100.00
52949;BME280;38812;50.942;3.644;2023-07-24T03:13:15;100500.47;;;15.57;100.00
52949;BME280;38812;50.942;3.644;2023-07-24T03:15:41;100510.88;;;15.60;100.00
52949;BME280;38812;50.942;3.644;2023-07-24T03:18:06;100494.75;;;15.46;100.00
52949;BME280;38812;50.942;3.644;2023-07-24T03:20:31;100493.06;;;15.44;100.00
52949;BME280;38812;50.942;3.644;2023-07-24T03:22:57;100482.59;;;15.41;100.00
52949;BME280;38812;50.942;3.644;2023-07-24T03:25:22;100484.75;;;15.33;100.00
52949;BME280;38812;50.942;3.644;2023-07-24T03:27:48;100486.31;;;15.37;100.00
52949;BME280;38812;50.942;3.644;2023-07-24T03:30:13;100476.75;;;15.35;100.00
52949;BME280;38812;50.942;3.644;2023-07-24T03:32:39;100475.09;;;15.32;100.00
52949;BME280;38812;50.942;3.644;2023-07-24T03:35:06;100475.09;;;15.32;100.00
52949;BME280;38812;50.942;3.644;2023-07-24T03:37:32;100483.75;;;15.36;100.00
52949;BME280;38812;50.942;3.644;2023-07-24T03:39:58;100481.97;;;15.36;100.00
52949;BME280;38812;50.942;3.644;2023-07-24T03:42:28;100467.03;;;15.35;100.00
52949;BME280;38812;50.942;3.644;2023-07-24T03:44:54;100461.88;;;15.32;100.00
52949;BME280;38812;50.942;3.644;2023-07-24T03:47:19;100450.06;;;15.21;100.00
52949;BME280;38812;50.942;3.644;2023-07-24T03:49:45;100459.44;;;15.28;100.00
52949;BME280;38812;50.942;3.644;2023-07-24T03:52:10;100470.59;;;15.34;100.00
52949;BME280;38812;50.942;3.644;2023-07-24T03:54:36;100471.53;;;15.33;100.00
52949;BME280;38812;50.942;3.644;2023-07-24T03:57:01;100455.47;;;15.18;100.00
52949;BME280;38812;50.942;3.644;2023-07-24T03:59:27;100469.63;;;15.17;100.00
52949;BME280;38812;50.942;3.644;2023-07-24T04:01:52;100473.88;;;15.21;100.00
52949;BME280;38812;50.942;3.644;2023-07-24T04:04:18;100467.09;;;15.15;100.00
52949;BME280;38812;50.942;3.644;2023-07-24T04:06:43;100486.75;;;15.28;100.00
52949;BME280;38812;50.942;3.644;2023-07-24T04:09:08;100483.25;;;15.28;100.00
52949;BME280;38812;50.942;3.644;2023-07-24T04:11:36;100488.47;;;15.29;100.00
52949;BME280;38812;50.942;3.644;2023-07-24T04:14:03;100496.28;;;15.32;100.00
52949;BME280;38812;50.942;3.644;2023-07-24T04:16:28;100494.44;;;15.34;100.00
52949;BME280;38812;50.942;3.644;2023-07-24T04:18:54;100477.09;;;15.27;100.00
52949;BME280;38812;50.942;3.644;2023-07-24T04:21:19;100468.38;;;15.25;100.00
52949;BME280;38812;50.942;3.644;2023-07-24T04:23:44;100490.59;;;15.40;100.00
52949;BME280;38812;50.942;3.644;2023-07-24T04:26:10;100487.91;;;15.41;100.00
52949;BME280;38812;50.942;3.644;2023-07-24T04:28:35;100485.03;;;15.46;100.00
52949;BME280;38812;50.942;3.644;2023-07-24T04:31:01;100470.94;;;15.46;100.00
52949;BME280;38812;50.942;3.644;2023-07-24T04:33:26;100476.25;;;15.46;100.00
52949;BME280;38812;50.942;3.644;2023-07-24T04:35:54;100467.72;;;15.39;100.00
52949;BME280;38812;50.942;3.644;2023-07-24T04:38:19;100490.91;;;15.53;100.00
52949;BME280;38812;50.942;3.644;2023-07-24T04:40:45;100475.97;;;15.52;100.00
52949;BME280;38812;50.942;3.644;2023-07-24T04:43:10;100488.78;;;15.61;100.00
52949;BME280;38812;50.942;3.644;2023-07-24T04:45:35;100487.84;;;15.62;100.00
52949;BME280;38812;50.942;3.644;2023-07-24T04:48:01;100495.78;;;15.62;100.00
52949;BME280;38812;50.942;3.644;2023-07-24T04:50:26;100496.66;;;15.62;100.00
52949;BME280;38812;50.942;3.644;2023-07-24T04:52:52;100488.63;;;15.64;100.00
52949;BME280;38812;50.942;3.644;2023-07-24T04:55:17;100491.06;;;15.68;100.00
52949;BME280;38812;50.942;3.644;2023-07-24T04:57:42;100490.94;;;15.71;100.00
52949;BME280;38812;50.942;3.644;2023-07-24T05:00:08;100483.34;;;15.64;100.00
52949;BME280;38812;50.942;3.644;2023-07-24T05:02:34;100497.22;;;15.69;100.00
52949;BME280;38812;50.942;3.644;2023-07-24T05:04:59;100477.19;;;15.63;100.00
52949;BME280;38812;50.942;3.644;2023-07-24T05:07:25;100490.22;;;15.68;100.00
52949;BME280;38812;50.942;3.644;2023-07-24T05:09:50;100487.41;;;15.71;100.00
52949;BME280;38812;50.942;3.644;2023-07-24T05:12:15;100489.72;;;15.79;100.00
52949;BME280;38812;50.942;3.644;2023-07-24T05:14:41;100488.88;;;15.95;100.00
52949;BME280;38812;50.942;3.644;2023-07-24T05:17:06;100484.84;;;16.05;100.00
52949;BME280;38812;50.942;3.644;2023-07-24T05:19:32;100482.22;;;16.23;100.00
52949;BME280;38812;50.942;3.644;2023-07-24T05:21:57;100479.25;;;16.46;100.00
52949;BME280;38812;50.942;3.644;2023-07-24T05:24:24;100454.00;;;16.56;100.00
52949;BME280;38812;50.942;3.644;2023-07-24T05:26:49;100448.25;;;16.65;100.00
52949;BME280;38812;50.942;3.644;2023-07-24T05:29:15;100432.72;;;16.40;100.00
52949;BME280;38812;50.942;3.644;2023-07-24T05:31:40;100451.56;;;16.52;100.00
52949;BME280;38812;50.942;3.644;2023-07-24T05:34:05;100441.28;;;16.63;100.00
52949;BME280;38812;50.942;3.644;2023-07-24T05:36:31;100430.84;;;16.93;100.00
52949;BME280;38812;50.942;3.644;2023-07-24T05:38:56;100412.72;;;17.32;100.00
52949;BME280;38812;50.942;3.644;2023-07-24T05:41:23;100401.09;;;17.19;100.00
52949;BME280;38812;50.942;3.644;2023-07-24T05:43:48;100384.66;;;17.28;100.00
52949;BME280;38812;50.942;3.644;2023-07-24T05:46:14;100391.88;;;17.26;100.00
52949;BME280;38812;50.942;3.644;2023-07-24T05:48:39;100377.28;;;17.18;100.00
52949;BME280;38812;50.942;3.644;2023-07-24T05:51:04;100393.91;;;17.21;100.00
52949;BME280;38812;50.942;3.644;2023-07-24T05:53:30;100393.91;;;17.21;100.00
52949;BME280;38812;50.942;3.644;2023-07-24T05:56:02;100389.44;;;17.22;100.00
52949;BME280;38812;50.942;3.644;2023-07-24T05:58:28;100392.00;;;17.39;100.00
52949;BME280;38812;50.942;3.644;2023-07-24T06:00:53;100396.44;;;17.54;100.00
52949;BME280;38812;50.942;3.644;2023-07-24T06:03:20;100376.94;;;17.39;100.00
52949;BME280;38812;50.942;3.644;2023-07-24T06:05:46;100391.41;;;17.34;100.00
52949;BME280;38812;50.942;3.644;2023-07-24T06:08:11;100381.13;;;17.12;100.00
52949;BME280;38812;50.942;3.644;2023-07-24T06:10:37;100387.03;;;17.01;100.00
52949;BME280;38812;50.942;3.644;2023-07-24T06:13:02;100412.31;;;17.08;100.00
52949;BME280;38812;50.942;3.644;2023-07-24T06:15:28;100420.84;;;16.98;100.00
52949;BME280;38812;50.942;3.644;2023-07-24T06:17:53;100420.97;;;16.79;100.00
52949;BME280;38812;50.942;3.644;2023-07-24T06:20:19;100434.16;;;16.81;100.00
52949;BME280;38812;50.942;3.644;2023-07-24T06:22:44;100432.00;;;16.71;100.00
52949;BME280;38812;50.942;3.644;2023-07-24T06:25:09;100438.06;;;16.73;100.00
52949;BME280;38812;50.942;3.644;2023-07-24T06:27:35;100445.09;;;16.74;100.00
52949;BME280;38812;50.942;3.644;2023-07-24T06:30:00;100444.66;;;16.66;100.00
52949;BME280;38812;50.942;3.644;2023-07-24T06:32:26;100450.81;;;16.67;100.00
52949;BME280;38812;50.942;3.644;2023-07-24T06:34:51;100452.91;;;16.60;100.00
52949;BME280;38812;50.942;3.644;2023-07-24T06:37:17;100481.94;;;16.63;100.00
52949;BME280;38812;50.942;3.644;2023-07-24T06:39:42;100466.16;;;16.60;100.00
52949;BME280;38812;50.942;3.644;2023-07-24T06:42:08;100466.78;;;16.48;100.00
52949;BME280;38812;50.942;3.644;2023-07-24T06:44:34;100466.63;;;16.51;100.00
52949;BME280;38812;50.942;3.644;2023-07-24T06:46:59;100485.50;;;16.62;100.00
52949;BME280;38812;50.942;3.644;2023-07-24T06:49:25;100480.94;;;16.66;100.00
52949;BME280;38812;50.942;3.644;2023-07-24T06:51:50;100478.72;;;16.74;100.00
52949;BME280;38812;50.942;3.644;2023-07-24T06:54:15;100485.44;;;16.81;100.00
52949;BME280;38812;50.942;3.644;2023-07-24T06:56:41;100465.38;;;16.75;100.00
52949;BME280;38812;50.942;3.644;2023-07-24T06:59:06;100430.50;;;16.49;100.00
52949;BME280;38812;50.942;3.644;2023-07-24T07:01:32;100407.66;;;16.46;100.00
52949;BME280;38812;50.942;3.644;2023-07-24T07:03:57;100409.22;;;16.67;100.00
52949;BME280;38812;50.942;3.644;2023-07-24T07:06:22;100418.50;;;16.76;100.00
52949;BME280;38812;50.942;3.644;2023-07-24T07:08:48;100414.41;;;16.86;100.00
52949;BME280;38812;50.942;3.644;2023-07-24T07:11:13;100393.38;;;16.99;100.00
52949;BME280;38812;50.942;3.644;2023-07-24T07:13:38;100395.63;;;17.22;100.00
52949;BME280;38812;50.942;3.644;2023-07-24T07:16:04;100391.00;;;17.41;100.00
52949;BME280;38812;50.942;3.644;2023-07-24T07:18:29;100382.41;;;17.36;100.00
52949;BME280;38812;50.942;3.644;2023-07-24T07:20:55;100388.25;;;17.43;100.00
52949;BME280;38812;50.942;3.644;2023-07-24T07:23:20;100380.03;;;17.47;100.00
52949;BME280;38812;50.942;3.644;2023-07-24T07:25:46;100388.75;;;17.81;100.00
52949;BME280;38812;50.942;3.644;2023-07-24T07:28:12;100386.78;;;17.99;100.00
52949;BME280;38812;50.942;3.644;2023-07-24T07:30:39;100376.94;;;18.01;100.00
52949;BME280;38812;50.942;3.644;2023-07-24T07:33:04;100374.66;;;17.95;100.00
52949;BME280;38812;50.942;3.644;2023-07-24T07:35:32;100353.00;;;18.01;100.00
52949;BME280;38812;50.942;3.644;2023-07-24T07:37:57;100366.22;;;18.02;100.00
52949;BME280;38812;50.942;3.644;2023-07-24T07:40:23;100363.34;;;17.91;100.00
52949;BME280;38812;50.942;3.644;2023-07-24T07:42:49;100363.09;;;17.80;100.00
52949;BME280;38812;50.942;3.644;2023-07-24T07:45:14;100348.28;;;17.76;100.00
52949;BME280;38812;50.942;3.644;2023-07-24T07:47:39;100355.91;;;17.82;100.00
52949;BME280;38812;50.942;3.644;2023-07-24T07:50:05;100355.19;;;17.94;100.00
52949;BME280;38812;50.942;3.644;2023-07-24T07:52:31;100341.84;;;17.80;100.00
52949;BME280;38812;50.942;3.644;2023-07-24T07:54:56;100365.25;;;17.89;100.00
52949;BME280;38812;50.942;3.644;2023-07-24T07:57:21;100349.34;;;17.73;100.00
52949;BME280;38812;50.942;3.644;2023-07-24T07:59:47;100372.78;;;17.81;100.00
52949;BME280;38812;50.942;3.644;2023-07-24T08:02:12;100371.69;;;17.85;100.00
52949;BME280;38812;50.942;3.644;2023-07-24T08:04:38;100367.47;;;17.81;100.00
52949;BME280;38812;50.942;3.644;2023-07-24T08:07:03;100363.81;;;17.98;100.00
52949;BME280;38812;50.942;3.644;2023-07-24T08:09:29;100359.66;;;18.52;100.00
52949;BME280;38812;50.942;3.644;2023-07-24T08:11:55;100350.34;;;18.88;100.00
52949;BME280;38812;50.942;3.644;2023-07-24T08:14:20;100337.75;;;19.18;100.00
52949;BME280;38812;50.942;3.644;2023-07-24T08:16:49;100343.84;;;19.47;100.00
52949;BME280;38812;50.942;3.644;2023-07-24T08:19:15;100323.28;;;19.76;100.00
52949;BME280;38812;50.942;3.644;2023-07-24T08:21:40;100313.38;;;19.78;100.00
52949;BME280;38812;50.942;3.644;2023-07-24T08:24:06;100289.28;;;19.92;100.00
52949;BME280;38812;50.942;3.644;2023-07-24T08:26:31;100304.97;;;19.97;100.00
52949;BME280;38812;50.942;3.644;2023-07-24T08:28:57;100302.34;;;20.09;100.00
52949;BME280;38812;50.942;3.644;2023-07-24T08:31:22;100283.44;;;20.00;100.00
52949;BME280;38812;50.942;3.644;2023-07-24T08:33:48;100292.88;;;19.66;100.00
52949;BME280;38812;50.942;3.644;2023-07-24T08:36:13;100283.94;;;19.79;100.00
52949;BME280;38812;50.942;3.644;2023-07-24T08:38:39;100296.50;;;19.65;100.00
52949;BME280;38812;50.942;3.644;2023-07-24T08:41:10;100300.16;;;19.49;100.00
52949;BME280;38812;50.942;3.644;2023-07-24T08:43:38;100307.00;;;19.00;100.00
52949;BME280;38812;50.942;3.644;2023-07-24T08:46:04;100302.75;;;19.51;100.00
52949;BME280;38812;50.942;3.644;2023-07-24T08:48:35;100309.53;;;19.42;100.00
52949;BME280;38812;50.942;3.644;2023-07-24T08:51:08;100302.84;;;18.81;100.00
52949;BME280;38812;50.942;3.644;2023-07-24T08:53:36;100272.44;;;18.57;100.00
52949;BME280;38812;50.942;3.644;2023-07-24T08:56:10;100298.25;;;18.98;100.00
52949;BME280;38812;50.942;3.644;2023-07-24T08:58:37;100296.31;;;19.41;100.00
52949;BME280;38812;50.942;3.644;2023-07-24T09:01:05;100267.31;;;19.49;100.00
52949;BME280;38812;50.942;3.644;2023-07-24T09:03:31;100266.91;;;19.82;100.00
52949;BME280;38812;50.942;3.644;2023-07-24T09:05:57;100260.75;;;20.81;100.00
52949;BME280;38812;50.942;3.644;2023-07-24T09:08:37;100253.38;;;21.57;100.00
52949;BME280;38812;50.942;3.644;2023-07-24T09:11:04;100259.66;;;20.97;100.00
52949;BME280;38812;50.942;3.644;2023-07-24T09:13:31;100271.88;;;20.75;100.00
52949;BME280;38812;50.942;3.644;2023-07-24T09:15:56;100260.72;;;20.45;100.00
52949;BME280;38812;50.942;3.644;2023-07-24T09:18:22;100261.47;;;20.47;100.00
52949;BME280;38812;50.942;3.644;2023-07-24T09:20:48;100261.88;;;20.15;100.00
52949;BME280;38812;50.942;3.644;2023-07-24T09:23:14;100265.84;;;19.97;100.00
52949;BME280;38812;50.942;3.644;2023-07-24T09:25:41;100257.31;;;20.43;100.00
52949;BME280;38812;50.942;3.644;2023-07-24T09:28:15;100258.66;;;20.36;100.00
52949;BME280;38812;50.942;3.644;2023-07-24T09:30:42;100249.19;;;19.81;100.00
52949;BME280;38812;50.942;3.644;2023-07-24T09:33:16;100258.59;;;19.87;100.00
52949;BME280;38812;50.942;3.644;2023-07-24T09:35:41;100237.16;;;19.88;100.00
52949;BME280;38812;50.942;3.644;2023-07-24T09:38:09;100278.09;;;19.87;100.00
52949;BME280;38812;50.942;3.644;2023-07-24T09:40:42;100291.84;;;19.41;100.00
52949;BME280;38812;50.942;3.644;2023-07-24T09:43:34;100297.56;;;19.35;100.00
52949;BME280;38812;50.942;3.644;2023-07-24T09:46:04;100276.09;;;19.51;100.00
52949;BME280;38812;50.942;3.644;2023-07-24T09:48:32;100274.22;;;19.26;100.00
52949;BME280;38812;50.942;3.644;2023-07-24T09:50:59;100286.50;;;19.14;100.00
52949;BME280;38812;50.942;3.644;2023-07-24T09:53:37;100301.38;;;19.31;100.00
52949;BME280;38812;50.942;3.644;2023-07-24T09:56:05;100288.19;;;18.89;100.00
52949;BME280;38812;50.942;3.644;2023-07-24T09:58:33;100301.78;;;19.25;100.00
52949;BME280;38812;50.942;3.644;2023-07-24T10:01:01;100302.09;;;19.21;100.00
52949;BME280;38812;50.942;3.644;2023-07-24T10:03:28;100289.63;;;19.21;100.00
52949;BME280;38812;50.942;3.644;2023-07-24T10:05:54;100300.78;;;19.40;100.00
52949;BME280;38812;50.942;3.644;2023-07-24T10:08:19;100324.72;;;19.55;100.00
52949;BME280;38812;50.942;3.644;2023-07-24T10:10:45;100324.50;;;19.58;100.00
52949;BME280;38812;50.942;3.644;2023-07-24T10:13:12;100320.56;;;19.90;100.00
52949;BME280;38812;50.942;3.644;2023-07-24T10:15:43;100320.34;;;20.18;100.00
52949;BME280;38812;50.942;3.644;2023-07-24T10:18:10;100315.44;;;20.76;100.00
52949;BME280;38812;50.942;3.644;2023-07-24T10:20:40;100310.31;;;21.46;100.00
52949;BME280;38812;50.942;3.644;2023-07-24T10:23:10;100309.03;;;22.77;100.00
52949;BME280;38812;50.942;3.644;2023-07-24T10:25:38;100310.00;;;22.87;100.00
52949;BME280;38812;50.942;3.644;2023-07-24T10:28:07;100305.34;;;22.56;100.00
52949;BME280;38812;50.942;3.644;2023-07-24T10:30:36;100312.41;;;22.23;100.00
52949;BME280;38812;50.942;3.644;2023-07-24T10:33:11;100317.03;;;21.15;100.00
52949;BME280;38812;50.942;3.644;2023-07-24T10:38:08;100319.94;;;20.75;100.00
52949;BME280;38812;50.942;3.644;2023-07-24T10:40:34;100319.97;;;20.50;100.00
52949;BME280;38812;50.942;3.644;2023-07-24T10:43:01;100322.94;;;20.71;100.00
52949;BME280;38812;50.942;3.644;2023-07-24T10:45:48;100317.97;;;20.90;100.00
52949;BME280;38812;50.942;3.644;2023-07-24T10:48:15;100312.53;;;21.28;100.00
52949;BME280;38812;50.942;3.644;2023-07-24T10:50:43;100319.13;;;21.35;100.00
52949;BME280;38812;50.942;3.644;2023-07-24T10:53:20;100329.88;;;21.10;100.00
52949;BME280;38812;50.942;3.644;2023-07-24T10:55:46;100328.00;;;20.86;100.00
52949;BME280;38812;50.942;3.644;2023-07-24T10:58:13;100315.94;;;20.81;100.00
52949;BME280;38812;50.942;3.644;2023-07-24T11:00:40;100331.66;;;20.85;100.00
52949;BME280;38812;50.942;3.644;2023-07-24T11:03:13;100323.50;;;21.00;100.00
52949;BME280;38812;50.942;3.644;2023-07-24T11:05:40;100326.81;;;21.64;100.00
52949;BME280;38812;50.942;3.644;2023-07-24T11:08:11;100308.31;;;21.96;100.00
52949;BME280;38812;50.942;3.644;2023-07-24T11:13:19;100315.13;;;22.68;100.00
52949;BME280;38812;50.942;3.644;2023-07-24T11:15:47;100317.25;;;23.19;100.00
52949;BME280;38812;50.942;3.644;2023-07-24T11:18:13;100308.06;;;22.89;100.00
52949;BME280;38812;50.942;3.644;2023-07-24T11:20:58;100321.88;;;22.16;100.00
52949;BME280;38812;50.942;3.644;2023-07-24T11:23:24;100324.44;;;21.83;100.00
52949;BME280;38812;50.942;3.644;2023-07-24T11:25:51;100317.00;;;21.28;100.00
52949;BME280;38812;50.942;3.644;2023-07-24T11:28:17;100311.72;;;20.78;100.00
52949;BME280;38812;50.942;3.644;2023-07-24T11:30:43;100336.59;;;20.41;100.00
52949;BME280;38812;50.942;3.644;2023-07-24T11:33:11;100337.97;;;20.72;100.00
52949;BME280;38812;50.942;3.644;2023-07-24T11:35:37;100340.88;;;20.43;100.00
52949;BME280;38812;50.942;3.644;2023-07-24T11:38:05;100335.56;;;20.56;100.00
52949;BME280;38812;50.942;3.644;2023-07-24T11:40:41;100333.94;;;21.03;100.00
52949;BME280;38812;50.942;3.644;2023-07-24T11:43:18;100337.88;;;20.73;100.00
52949;BME280;38812;50.942;3.644;2023-07-24T11:45:45;100318.78;;;21.40;100.00
52949;BME280;38812;50.942;3.644;2023-07-24T11:48:12;100330.94;;;22.71;100.00
52949;BME280;38812;50.942;3.644;2023-07-24T11:51:04;100331.28;;;23.00;100.00
52949;BME280;38812;50.942;3.644;2023-07-24T11:53:31;100328.00;;;22.30;100.00
52949;BME280;38812;50.942;3.644;2023-07-24T11:55:58;100339.00;;;22.14;100.00
52949;BME280;38812;50.942;3.644;2023-07-24T11:58:28;100338.22;;;21.66;100.00
52949;BME280;38812;50.942;3.644;2023-07-24T12:00:54;100341.72;;;21.18;100.00
52949;BME280;38812;50.942;3.644;2023-07-24T12:03:22;100348.09;;;20.79;100.00
52949;BME280;38812;50.942;3.644;2023-07-24T12:05:48;100344.94;;;21.11;100.00
52949;BME280;38812;50.942;3.644;2023-07-24T12:08:14;100349.19;;;21.50;100.00
52949;BME280;38812;50.942;3.644;2023-07-24T12:10:40;100330.16;;;21.54;100.00
52949;BME280;38812;50.942;3.644;2023-07-24T12:13:06;100339.53;;;21.95;100.00
52949;BME280;38812;50.942;3.644;2023-07-24T12:15:32;100341.44;;;22.06;100.00
52949;BME280;38812;50.942;3.644;2023-07-24T12:18:00;100338.19;;;22.36;100.00
52949;BME280;38812;50.942;3.644;2023-07-24T12:20:26;100326.94;;;22.88;100.00
52949;BME280;38812;50.942;3.644;2023-07-24T12:22:52;100320.22;;;22.49;100.00
52949;BME280;38812;50.942;3.644;2023-07-24T12:25:17;100312.91;;;22.62;100.00
52949;BME280;38812;50.942;3.644;2023-07-24T12:27:43;100312.28;;;23.03;100.00
52949;BME280;38812;50.942;3.644;2023-07-24T12:30:08;100322.06;;;22.93;100.00
52949;BME280;38812;50.942;3.644;2023-07-24T12:32:35;100318.53;;;22.70;100.00
52949;BME280;38812;50.942;3.644;2023-07-24T12:35:00;100330.44;;;22.44;100.00
52949;BME280;38812;50.942;3.644;2023-07-24T12:37:26;100339.41;;;21.85;100.00
52949;BME280;38812;50.942;3.644;2023-07-24T12:39:51;100343.28;;;21.81;100.00
52949;BME280;38812;50.942;3.644;2023-07-24T12:42:18;100337.94;;;21.58;100.00
52949;BME280;38812;50.942;3.644;2023-07-24T12:44:43;100340.84;;;22.13;100.00
52949;BME280;38812;50.942;3.644;2023-07-24T12:47:10;100338.28;;;21.88;100.00